createdAt,value
2019-05-07T00:01:02.930Z,8.33
2019-05-07T00:06:05.158Z,8.97
2019-05-07T00:11:07.232Z,6.93
2019-05-07T00:16:09.267Z,8.23
2019-05-07T00:21:12.627Z,8.93
2019-05-07T00:26:14.998Z,9.33
2019-05-07T00:31:17.077Z,8.00
2019-05-07T00:36:52.498Z,7.30
2019-05-07T00:42:03.002Z,7.83
2019-05-07T00:47:04.788Z,6.00
2019-05-07T00:52:06.843Z,5.47
2019-05-07T00:57:08.911Z,8.13
2019-05-07T01:02:12.799Z,6.20
2019-05-07T01:07:15.019Z,6.33
2019-05-07T01:12:17.098Z,6.63
2019-05-07T01:17:19.128Z,6.17
2019-05-07T01:22:22.243Z,8.93
2019-05-07T01:27:24.589Z,6.83
2019-05-07T01:32:35.868Z,6.20
2019-05-07T01:37:37.970Z,5.70
2019-05-07T01:42:42.167Z,6.27
2019-05-07T01:47:44.003Z,5.23
2019-05-07T01:52:47.853Z,7.00
2019-05-07T01:57:52.129Z,5.77
2019-05-07T02:02:59.756Z,10.80
2019-05-07T02:08:04.425Z,7.47
2019-05-07T02:13:06.507Z,7.50
2019-05-07T02:18:08.666Z,7.63
2019-05-07T02:23:12.754Z,5.50
2019-05-07T02:28:14.836Z,8.80
2019-05-07T02:33:16.934Z,9.00
2019-05-07T02:38:29.889Z,6.67
2019-05-07T02:43:33.732Z,6.53
2019-05-07T02:48:43.358Z,6.80
2019-05-07T02:53:57.447Z,8.87
2019-05-07T02:58:59.518Z,9.27
2019-05-07T03:04:03.631Z,10.33
2019-05-07T03:09:06.155Z,10.90
2019-05-07T03:14:08.429Z,11.47
2019-05-07T03:19:13.322Z,11.33
2019-05-07T03:24:23.052Z,12.07
2019-05-07T03:29:25.743Z,12.93
2019-05-07T03:34:46.424Z,10.57
2019-05-07T03:39:47.643Z,10.17
2019-05-07T03:45:09.349Z,9.97
2019-05-07T03:50:14.637Z,11.50
2019-05-07T03:55:17.083Z,10.63
2019-05-07T04:00:19.160Z,9.47
2019-05-07T04:05:23.131Z,8.20
2019-05-07T04:10:25.272Z,9.63
2019-05-07T04:15:27.346Z,9.40
2019-05-07T04:20:29.408Z,9.87
2019-05-07T04:25:56.875Z,9.60
2019-05-07T04:31:02.835Z,10.70
2019-05-07T04:36:18.688Z,11.50
2019-05-07T04:41:23.590Z,10.80
2019-05-07T04:46:26.042Z,11.07
2019-05-07T04:51:37.785Z,10.30
2019-05-07T04:56:39.849Z,12.33
2019-05-07T05:01:47.670Z,12.80
2019-05-07T05:06:49.817Z,13.10
2019-05-07T05:11:53.103Z,12.50
2019-05-07T05:16:55.442Z,16.53
2019-05-07T05:22:07.647Z,13.33
2019-05-07T05:27:12.099Z,16.87
2019-05-07T05:32:13.753Z,18.20
2019-05-07T05:37:15.875Z,12.97
2019-05-07T05:42:28.281Z,17.33
2019-05-07T05:47:30.401Z,15.00
2019-05-07T05:52:39.411Z,13.93
2019-05-07T05:57:58.424Z,14.93
2019-05-07T06:03:34.329Z,18.87
2019-05-07T06:08:55.371Z,15.00
2019-05-07T06:14:15.623Z,17.07
2019-05-07T06:19:23.234Z,21.00
2019-05-07T06:24:40.053Z,20.60
2019-05-07T06:29:42.681Z,19.93
2019-05-07T06:34:45.147Z,15.57
2019-05-07T06:39:55.514Z,14.97
2019-05-07T06:45:05.606Z,15.70
2019-05-07T06:50:07.692Z,17.07
2019-05-07T06:55:12.072Z,18.17
2019-05-07T07:00:37.034Z,12.30
2019-05-07T07:06:02.747Z,12.50
2019-05-07T07:11:15.384Z,15.27
2019-05-07T07:16:19.553Z,13.07
2019-05-07T07:21:22.054Z,12.37
2019-05-07T07:26:24.148Z,13.70
2019-05-07T07:31:33.465Z,11.60
2019-05-07T07:37:05.450Z,11.93
2019-05-07T07:42:02.927Z,11.00
2019-05-07T07:47:05.012Z,9.30
2019-05-07T07:52:07.068Z,9.57
2019-05-07T07:57:32.423Z,7.93
2019-05-07T08:03:03.057Z,8.57
2019-05-07T08:08:05.241Z,7.87
2019-05-07T08:13:07.280Z,7.40
2019-05-07T08:18:11.843Z,8.53
2019-05-07T08:23:13.447Z,8.77
2019-05-07T08:28:16.850Z,12.13
2019-05-07T08:33:23.582Z,11.97
2019-05-07T08:38:25.613Z,11.43
2019-05-07T08:43:27.671Z,9.70
2019-05-07T08:48:37.884Z,12.10
2019-05-07T08:53:42.191Z,13.13
2019-05-07T08:58:43.894Z,10.17
2019-05-07T09:03:45.922Z,10.13
2019-05-07T09:08:47.995Z,9.60
2019-05-07T09:13:50.075Z,13.90
2019-05-07T09:18:54.221Z,9.53
2019-05-07T09:23:56.265Z,9.97
2019-05-07T09:29:05.167Z,13.40
2019-05-07T09:34:07.270Z,10.27
2019-05-07T09:39:09.423Z,7.83
2019-05-07T09:44:11.977Z,9.50
2019-05-07T09:49:14.231Z,9.23
2019-05-07T09:54:16.309Z,9.07
2019-05-07T09:59:18.398Z,7.87
2019-05-07T10:04:22.405Z,7.77
2019-05-07T10:09:24.600Z,9.83
2019-05-07T10:14:26.698Z,7.30
2019-05-07T10:19:29.276Z,8.73
2019-05-07T10:24:31.625Z,6.67
2019-05-07T10:29:33.706Z,9.73
2019-05-07T10:34:35.813Z,9.40
2019-05-07T10:39:37.843Z,6.00
2019-05-07T10:44:46.252Z,8.53
2019-05-07T10:49:55.937Z,7.73
2019-05-07T10:55:00.014Z,6.27
2019-05-07T11:00:03.224Z,6.27
2019-05-07T11:05:05.842Z,8.93
2019-05-07T11:10:12.193Z,5.27
2019-05-07T11:15:15.031Z,7.67
2019-05-07T11:20:17.817Z,6.10
2019-05-07T11:25:19.934Z,7.20
2019-05-07T11:30:22.909Z,8.47
2019-05-07T11:35:25.140Z,7.63
2019-05-07T11:40:27.201Z,6.13
2019-05-07T11:45:35.024Z,7.03
2019-05-07T11:51:00.426Z,5.60
2019-05-07T11:55:53.777Z,4.57
2019-05-07T12:01:03.960Z,5.47
2019-05-07T12:06:06.382Z,4.27
2019-05-07T12:11:08.472Z,6.73
2019-05-07T12:16:13.953Z,6.87
2019-05-07T12:21:20.721Z,3.90
2019-05-07T12:26:18.540Z,4.93
2019-05-07T12:31:39.109Z,7.47
2019-05-07T12:36:41.534Z,5.53
2019-05-07T12:41:43.577Z,6.80
2019-05-07T12:46:45.948Z,5.07
2019-05-07T12:52:16.291Z,8.03
2019-05-07T12:57:18.353Z,6.47
2019-05-07T13:02:42.063Z,5.63
2019-05-07T13:07:52.979Z,5.63
2019-05-07T13:12:55.067Z,6.03
2019-05-07T13:17:57.176Z,4.97
2019-05-07T13:22:59.633Z,5.53
2019-05-07T13:28:02.619Z,4.33
2019-05-07T13:33:05.130Z,4.33
2019-05-07T13:38:25.740Z,4.37
2019-05-07T13:43:32.449Z,7.03
2019-05-07T13:48:35.793Z,4.10
2019-05-07T13:53:37.811Z,5.83
2019-05-07T13:58:39.869Z,3.87
2019-05-07T14:03:42.025Z,5.20
2019-05-07T14:08:44.525Z,5.27
2019-05-07T14:13:47.092Z,5.20
2019-05-07T14:18:49.335Z,3.80
2019-05-07T14:23:52.129Z,5.23
2019-05-07T14:28:54.424Z,7.80
2019-05-07T14:34:05.133Z,4.47
2019-05-07T14:39:07.996Z,5.00
2019-05-07T14:44:13.023Z,5.37
2019-05-07T14:49:15.167Z,5.80
2019-05-07T14:54:18.364Z,3.63
2019-05-07T14:59:20.569Z,5.53
2019-05-07T15:04:22.638Z,4.50
2019-05-07T15:09:24.712Z,5.37
2019-05-07T15:14:26.847Z,8.00
2019-05-07T15:19:28.939Z,7.57
2019-05-07T15:24:32.693Z,4.67
2019-05-07T15:29:34.904Z,8.57
2019-05-07T15:34:37.182Z,5.83
2019-05-07T15:39:39.439Z,7.07
2019-05-07T15:44:43.175Z,7.43
2019-05-07T15:49:45.560Z,5.83
2019-05-07T15:54:47.618Z,6.40
2019-05-07T15:59:52.410Z,5.27
2019-05-07T16:04:54.664Z,6.17
2019-05-07T16:09:58.544Z,5.73
2019-05-07T16:15:02.991Z,5.37
2019-05-07T16:20:05.241Z,7.43
2019-05-07T16:25:07.583Z,4.87
2019-05-07T16:30:13.988Z,4.33
2019-05-07T16:35:16.261Z,6.20
2019-05-07T16:40:19.847Z,5.50
2019-05-07T16:45:22.275Z,4.60
2019-05-07T16:50:24.304Z,4.77
2019-05-07T16:55:36.613Z,5.63
2019-05-07T17:00:52.285Z,5.20
2019-05-07T17:05:54.502Z,5.90
2019-05-07T17:10:56.581Z,4.90
2019-05-07T17:16:00.151Z,10.10
2019-05-07T17:21:02.397Z,6.97
2019-05-07T17:26:05.048Z,5.80
2019-05-07T17:31:07.306Z,7.13
2019-05-07T17:36:12.035Z,5.03
2019-05-07T17:41:22.219Z,6.67
2019-05-07T17:46:23.056Z,8.40
2019-05-07T17:51:44.787Z,7.47
2019-05-07T17:56:46.914Z,6.20
2019-05-07T18:02:01.932Z,6.07
2019-05-07T18:07:07.080Z,5.27
2019-05-07T18:12:09.302Z,9.20
2019-05-07T18:17:33.505Z,5.40
2019-05-07T18:22:35.587Z,6.40
2019-05-07T18:27:42.061Z,4.93
2019-05-07T18:32:49.343Z,11.37
2019-05-07T18:37:53.620Z,9.83
2019-05-07T18:42:55.664Z,5.07
2019-05-07T18:47:57.786Z,7.43
2019-05-07T18:53:02.854Z,5.07
2019-05-07T18:58:05.161Z,7.93
2019-05-07T19:03:07.404Z,8.93
2019-05-07T19:08:09.471Z,7.37
2019-05-07T19:13:13.664Z,6.47
2019-05-07T19:18:17.654Z,8.23
2019-05-07T19:23:22.106Z,6.60
2019-05-07T19:28:25.330Z,8.77
2019-05-07T19:33:36.864Z,5.70
2019-05-07T19:38:44.167Z,8.97
2019-05-07T19:43:48.055Z,8.17
2019-05-07T19:48:52.067Z,8.53
2019-05-07T19:53:54.083Z,7.07
2019-05-07T19:58:56.153Z,8.43
2019-05-07T20:03:58.257Z,8.17
2019-05-07T20:09:11.467Z,6.90
2019-05-07T20:14:04.649Z,10.07
2019-05-07T20:19:06.801Z,9.47
2019-05-07T20:24:08.893Z,9.03
2019-05-07T20:29:12.314Z,8.27
2019-05-07T20:34:14.793Z,10.07
2019-05-07T20:39:16.848Z,11.83
2019-05-07T20:44:18.953Z,14.83
2019-05-07T20:49:22.499Z,10.43
2019-05-07T20:54:47.387Z,11.90
2019-05-07T20:59:49.569Z,13.17
2019-05-07T21:04:51.966Z,13.80
2019-05-07T21:09:54.095Z,14.27
2019-05-07T21:14:56.331Z,11.77
2019-05-07T21:19:58.503Z,10.77
2019-05-07T21:25:02.662Z,13.17
2019-05-07T21:30:05.267Z,12.97
2019-05-07T21:35:07.367Z,13.27
2019-05-07T21:40:09.494Z,11.13
2019-05-07T21:45:11.550Z,12.93
2019-05-07T21:50:13.729Z,9.53
2019-05-07T21:55:35.433Z,11.67
2019-05-07T22:00:48.054Z,12.73
2019-05-07T22:05:51.743Z,11.73
2019-05-07T22:10:54.061Z,14.57
2019-05-07T22:15:56.119Z,12.53
2019-05-07T22:20:59.481Z,11.13
2019-05-07T22:26:18.448Z,11.40
2019-05-07T22:31:20.185Z,10.60
2019-05-07T22:36:23.566Z,12.20
2019-05-07T22:41:25.964Z,13.13
2019-05-07T22:46:28.057Z,11.33
2019-05-07T22:51:30.170Z,12.57
2019-05-07T22:56:54.657Z,11.90
2019-05-07T23:01:56.725Z,11.93
2019-05-07T23:06:58.798Z,13.37
2019-05-07T23:12:02.211Z,13.10
2019-05-07T23:17:04.486Z,12.07
2019-05-07T23:22:06.531Z,11.77
2019-05-07T23:27:08.636Z,10.97
2019-05-07T23:32:12.659Z,11.97
2019-05-07T23:37:14.961Z,11.90
2019-05-07T23:42:21.309Z,13.37
2019-05-07T23:47:23.398Z,11.10
2019-05-07T23:52:25.566Z,12.50
2019-05-07T23:57:27.663Z,11.87
